createdAt,value
2022-08-31T00:04:59.391Z,79
2022-08-31T00:10:37.959Z,79.2
2022-08-31T00:16:19.833Z,79.4
2022-08-31T00:21:55.139Z,79.4
2022-08-31T00:27:30.301Z,79.5
2022-08-31T00:33:04.939Z,79.5
2022-08-31T00:38:39.721Z,79.6
2022-08-31T00:44:15.618Z,79.6
2022-08-31T00:49:50.454Z,79.7
2022-08-31T00:55:25.489Z,79.8
2022-08-31T01:01:01.171Z,80
2022-08-31T01:06:37.348Z,80
2022-08-31T01:12:12.311Z,80
2022-08-31T01:17:49.314Z,80.1
2022-08-31T01:23:24.029Z,80
2022-08-31T01:28:58.910Z,80.1
2022-08-31T01:34:34.699Z,80.1
2022-08-31T01:40:17.987Z,80.2
2022-08-31T01:45:54.446Z,80.3
2022-08-31T01:51:32.217Z,80.3
2022-08-31T01:57:06.977Z,80.4
2022-08-31T02:02:43.560Z,80.6
2022-08-31T02:08:19.388Z,80.7
2022-08-31T02:13:54.548Z,80.7
2022-08-31T02:19:29.432Z,80.8
2022-08-31T02:25:04.365Z,80.9
2022-08-31T02:30:45.031Z,81
2022-08-31T02:36:21.400Z,81.1
2022-08-31T02:42:01.199Z,81.2
2022-08-31T02:47:35.852Z,81.3
2022-08-31T02:53:11.047Z,81.4
2022-08-31T02:58:46.063Z,81.4
2022-08-31T03:04:20.908Z,81.5
2022-08-31T03:09:55.865Z,81.5
2022-08-31T03:15:31.066Z,81.6
2022-08-31T03:21:07.385Z,81.7
2022-08-31T03:26:43.397Z,81.7
2022-08-31T03:32:17.961Z,81.8
2022-08-31T03:37:52.730Z,81.7
2022-08-31T03:43:28.857Z,81.8
2022-08-31T03:49:03.587Z,81.9
2022-08-31T03:54:38.456Z,82
2022-08-31T04:00:13.122Z,82.1
2022-08-31T04:05:48.290Z,82.2
2022-08-31T04:11:45.789Z,82.2
2022-08-31T04:17:21.347Z,82.2
2022-08-31T04:22:56.220Z,82.3
2022-08-31T04:28:31.200Z,82.4
2022-08-31T04:34:06.332Z,82.5
2022-08-31T04:39:52.158Z,82.5
2022-08-31T04:45:27.408Z,82.6
2022-08-31T04:51:03.844Z,82.6
2022-08-31T04:56:38.634Z,82.7
2022-08-31T05:02:13.896Z,82.8
2022-08-31T05:07:50.091Z,83.6
2022-08-31T05:13:46.589Z,85.8
2022-08-31T05:19:21.259Z,86.9
2022-08-31T05:24:56.277Z,87.1
2022-08-31T05:30:31.083Z,87.2
2022-08-31T05:36:05.940Z,88
2022-08-31T05:41:40.855Z,87.8
2022-08-31T05:47:20.675Z,87.8
2022-08-31T05:52:55.347Z,88.1
2022-08-31T05:58:34.456Z,87.9
2022-08-31T06:04:09.384Z,87.3
2022-08-31T06:09:46.986Z,87.3
2022-08-31T06:15:22.693Z,87.1
2022-08-31T06:20:57.554Z,86.9
2022-08-31T06:26:32.376Z,85.9
2022-08-31T06:32:07.388Z,85.9
2022-08-31T06:37:42.823Z,85.5
2022-08-31T06:43:39.428Z,84.3
2022-08-31T06:49:12.103Z,83.5
2022-08-31T06:54:47.151Z,84.4
2022-08-31T07:00:22.046Z,84.5
2022-08-31T07:05:57.913Z,84.7
2022-08-31T07:11:33.773Z,85.9
2022-08-31T07:17:08.426Z,87.3
2022-08-31T07:22:43.314Z,87.6
2022-08-31T07:28:18.498Z,86.6
2022-08-31T07:33:53.300Z,87.8
2022-08-31T07:39:28.270Z,88
2022-08-31T07:45:33.528Z,87.9
2022-08-31T07:51:15.545Z,89.6
2022-08-31T07:56:50.259Z,90.9
2022-08-31T08:02:29.181Z,91.4
2022-08-31T08:08:13.431Z,91.2
2022-08-31T08:30:39.848Z,91.1
2022-08-31T08:36:59.126Z,91.7
2022-08-31T08:42:31.034Z,91.9
2022-08-31T08:48:06.582Z,91.7
2022-08-31T08:53:42.738Z,91.5
2022-08-31T08:59:20.635Z,91.3
2022-08-31T09:04:58.046Z,89.9
2022-08-31T09:10:32.839Z,88
2022-08-31T09:16:08.167Z,85.4
2022-08-31T09:21:45.390Z,82.7
2022-08-31T09:27:20.404Z,83
2022-08-31T09:32:55.621Z,82.2
2022-08-31T09:38:30.469Z,84.6
2022-08-31T09:44:05.475Z,85.7
2022-08-31T09:49:40.386Z,85.9
2022-08-31T09:55:16.168Z,85.7
2022-08-31T10:00:50.960Z,85.9
2022-08-31T10:06:25.982Z,86
2022-08-31T10:12:01.822Z,86.1
2022-08-31T10:17:36.889Z,86.4
2022-08-31T10:23:11.891Z,86.3
2022-08-31T10:29:08.629Z,86.3
2022-08-31T10:34:42.413Z,86.4
2022-08-31T10:40:17.864Z,85.9
2022-08-31T10:45:53.651Z,85.6
2022-08-31T10:51:29.807Z,85.6
2022-08-31T10:57:04.638Z,85.5
2022-08-31T11:02:41.007Z,85.2
2022-08-31T11:08:15.918Z,85.1
2022-08-31T11:13:50.689Z,84.8
2022-08-31T11:19:25.469Z,84.9
2022-08-31T11:25:00.238Z,84.9
2022-08-31T11:30:58.978Z,84.5
2022-08-31T11:36:34.801Z,84.5
2022-08-31T11:42:09.587Z,84.1
2022-08-31T11:47:45.290Z,84.1
2022-08-31T11:53:21.023Z,83.6
2022-08-31T11:58:57.493Z,83.4
2022-08-31T12:04:32.308Z,82.9
2022-08-31T12:10:14.700Z,82.1
2022-08-31T12:15:50.225Z,81.9
2022-08-31T12:21:26.145Z,81.6
2022-08-31T12:27:01.931Z,81.4
2022-08-31T12:32:36.676Z,81.1
2022-08-31T12:38:11.500Z,81
2022-08-31T12:43:46.218Z,81.2
2022-08-31T12:49:21.335Z,81.3
2022-08-31T12:54:56.905Z,81.1
2022-08-31T13:00:31.965Z,80.9
2022-08-31T13:06:08.385Z,80.3
2022-08-31T13:11:43.286Z,80.5
2022-08-31T13:17:19.632Z,80.5
2022-08-31T13:22:54.432Z,80.3
2022-08-31T13:28:50.909Z,79.9
2022-08-31T13:34:24.124Z,79.8
2022-08-31T13:40:02.118Z,79.4
2022-08-31T13:45:39.093Z,79.4
2022-08-31T13:51:15.646Z,79.2
2022-08-31T13:56:51.728Z,78.9
2022-08-31T14:02:36.408Z,78.6
2022-08-31T14:08:13.679Z,77.6
2022-08-31T14:13:49.578Z,76.6
2022-08-31T14:19:24.662Z,75.9
2022-08-31T14:24:59.794Z,75
2022-08-31T14:30:34.785Z,74
2022-08-31T14:36:13.623Z,74
2022-08-31T14:41:49.501Z,73.3
2022-08-31T14:47:25.656Z,73
2022-08-31T14:53:00.852Z,72.6
2022-08-31T14:58:36.194Z,72.8
2022-08-31T15:04:11.126Z,72.6
2022-08-31T15:09:46.221Z,73
2022-08-31T15:15:25.787Z,72.7
2022-08-31T15:21:00.812Z,72.6
2022-08-31T15:26:35.780Z,72.7
2022-08-31T15:32:11.783Z,73.1
2022-08-31T15:37:47.784Z,73.4
2022-08-31T15:43:23.849Z,73.6
2022-08-31T15:48:59.471Z,73.5
2022-08-31T15:54:35.601Z,73.7
2022-08-31T16:00:10.765Z,73.8
2022-08-31T16:05:46.512Z,73.9
2022-08-31T16:11:22.451Z,72.9
2022-08-31T16:16:57.614Z,73
2022-08-31T16:22:33.029Z,73.9
2022-08-31T16:28:07.691Z,72.5
2022-08-31T16:33:43.672Z,74.1
2022-08-31T16:39:19.285Z,72.4
2022-08-31T16:44:59.943Z,75.6
2022-08-31T16:50:37.598Z,75.4
2022-08-31T16:56:12.501Z,75.7
2022-08-31T17:01:47.841Z,76.2
2022-08-31T17:07:23.611Z,75.9
2022-08-31T17:12:59.146Z,76.2
2022-08-31T17:18:34.932Z,76.8
2022-08-31T17:24:12.403Z,79
2022-08-31T17:29:48.625Z,79.5
2022-08-31T17:35:24.568Z,81
2022-08-31T17:40:59.293Z,81.3
2022-08-31T17:46:34.357Z,81.7
2022-08-31T17:52:09.720Z,82.3
2022-08-31T17:57:44.653Z,81.5
2022-08-31T18:03:19.941Z,81.7
2022-08-31T18:08:54.753Z,81.9
2022-08-31T18:14:29.694Z,81.7
2022-08-31T18:20:04.628Z,82.3
2022-08-31T18:25:39.323Z,82.5
2022-08-31T18:31:14.666Z,82
2022-08-31T18:36:51.060Z,82.6
2022-08-31T18:42:26.936Z,83.4
2022-08-31T18:48:35.490Z,83.4
2022-08-31T18:54:12.519Z,86.5
2022-08-31T18:59:47.235Z,87.8
2022-08-31T19:05:21.923Z,88.1
2022-08-31T19:10:57.003Z,88.4
2022-08-31T19:16:32.215Z,87.5
2022-08-31T19:22:08.129Z,88.8
2022-08-31T19:27:42.866Z,88.7
2022-08-31T19:33:18.358Z,88.6
2022-08-31T19:38:55.138Z,88.5
2022-08-31T19:45:22.311Z,89.9
2022-08-31T19:51:20.092Z,89.9
2022-08-31T19:56:55.023Z,89.7
2022-08-31T20:02:30.014Z,89.8
2022-08-31T20:08:06.468Z,89.3
2022-08-31T20:13:41.260Z,89.1
2022-08-31T20:19:16.309Z,89.3
2022-08-31T20:24:52.277Z,87.4
2022-08-31T20:30:48.785Z,86.3
2022-08-31T20:36:21.961Z,85.9
2022-08-31T20:41:56.778Z,85.5
2022-08-31T20:47:31.690Z,85.2
2022-08-31T20:53:06.670Z,84.9
2022-08-31T20:58:42.393Z,84.7
2022-08-31T21:04:17.179Z,84.6
2022-08-31T21:09:52.067Z,84.5
2022-08-31T21:15:26.907Z,84.4
2022-08-31T21:21:02.316Z,84.2
2022-08-31T21:26:40.096Z,84.1
2022-08-31T21:32:15.684Z,83.9
2022-08-31T21:37:51.305Z,83.8
2022-08-31T21:43:26.093Z,83.7
2022-08-31T21:49:00.850Z,83.7
2022-08-31T21:54:35.782Z,83.8
2022-08-31T22:00:10.648Z,83.8
2022-08-31T22:05:52.883Z,83.8
2022-08-31T22:11:27.706Z,83.7
2022-08-31T22:17:03.617Z,83.8
2022-08-31T22:22:39.403Z,83.9
2022-08-31T22:28:37.317Z,83.8
2022-08-31T22:34:10.061Z,84
2022-08-31T22:39:44.723Z,83.9
2022-08-31T22:45:20.074Z,84
2022-08-31T22:50:56.486Z,84
2022-08-31T22:56:32.060Z,84
2022-08-31T23:02:07.000Z,84
2022-08-31T23:07:41.970Z,84.1
2022-08-31T23:13:16.853Z,84.2
2022-08-31T23:18:51.651Z,84.1
2022-08-31T23:24:26.524Z,84.2
2022-08-31T23:30:23.400Z,84.1
2022-08-31T23:35:56.015Z,84.3
2022-08-31T23:41:31.263Z,84.3
2022-08-31T23:47:14.408Z,84.3
2022-08-31T23:52:49.436Z,84.5
2022-08-31T23:58:24.591Z,84.5
